createdAt,value
2022-08-05T00:21:11.960Z,6.5
2022-08-05T00:51:50.318Z,12
2022-08-05T01:21:54.345Z,8
2022-08-05T01:52:17.707Z,4
2022-08-05T02:22:30.806Z,9.5
2022-08-05T02:52:48.696Z,8
2022-08-05T03:23:06.960Z,11.5
2022-08-05T03:55:52.347Z,13.2
2022-08-05T04:24:05.128Z,6.7
2022-08-05T04:54:09.726Z,8.1
2022-08-05T05:24:35.799Z,5.6
2022-08-05T05:54:51.978Z,5.3
2022-08-05T06:25:25.104Z,4.4
2022-08-05T06:55:36.567Z,5.1
2022-08-05T07:25:58.407Z,3.8
2022-08-05T07:56:39.113Z,4.9
2022-08-05T08:26:42.659Z,8.5
2022-08-05T08:57:04.192Z,3.6
2022-08-05T09:28:04.245Z,3.3
2022-08-05T09:57:44.002Z,3
2022-08-05T10:28:13.681Z,3.2
2022-08-05T10:58:41.043Z,3.3
2022-08-05T11:28:51.308Z,5.7
2022-08-05T11:59:24.988Z,6
2022-08-05T12:29:43.531Z,4.5
2022-08-05T13:01:57.598Z,4.7
2022-08-05T13:30:34.787Z,5.8
2022-08-05T14:00:35.931Z,9.2
2022-08-05T14:31:00.648Z,17.1
2022-08-05T15:01:16.217Z,11.5
2022-08-05T15:31:34.577Z,3.1
2022-08-05T16:01:53.823Z,2.8
2022-08-05T16:32:11.696Z,1.5
2022-08-05T17:02:28.365Z,1.2
2022-08-05T17:32:48.486Z,2.6
2022-08-05T18:03:05.454Z,2
2022-08-05T18:33:24.777Z,2.8
2022-08-05T19:34:00.210Z,5.1
2022-08-05T20:04:20.825Z,2.1
2022-08-05T20:34:38.438Z,2.5
2022-08-05T21:04:55.322Z,3.8
2022-08-05T21:35:30.141Z,4.6
2022-08-05T22:05:49.155Z,2
2022-08-05T22:35:59.110Z,2.6
2022-08-05T23:06:18.835Z,4.1
2022-08-05T23:36:40.085Z,2.1
